CPX212 Details

Departure: March Air Reserve Base (KRIV)
Arrival: Sacramento International Airport (KSMF) at N/A
Route: SLI J78 LAX J5 LANDO NURAY SUUTR2
Notes:


Current Weather Information
KRIV 231158Z AUTO 00000KT 10SM CLR 09/M02 A2996 RMK AO2 SLP135 T00891018 10184 20085 56010
KSMF 231253Z 00000KT 10SM CLR 12/08 A3000 RMK AO2 SLP159 T01170078